Time;durP1;ratioP1;P1;durP2;ratioP2;P2;SDS_P1;SDS_P2;PMS_P1;PMS_P2;Temp;Humidity;BMP_temperature;BMP_pressure;BME280_temperature;BME280_humidity;BME280_pressure;Samples;Min_cycle;Max_cycle;Signal;HPM_P1;HPM_P2
2022/04/08 00:01:52;;;;;;;10.32;1.30;;;6.20;99.90;;;;;;5048931;28;20149;-44
2022/04/08 00:04:19;;;;;;;10.98;1.20;;;6.20;99.90;;;;;;5050920;28;20436;-43
2022/04/08 00:06:45;;;;;;;14.20;1.90;;;6.10;99.90;;;;;;5051722;28;20136;-43
2022/04/08 00:09:13;;;;;;;12.05;1.35;;;6.10;99.90;;;;;;5053067;28;20049;-44
2022/04/08 00:11:40;;;;;;;14.88;2.05;;;6.10;99.90;;;;;;5053010;28;20378;-44
2022/04/08 00:14:07;;;;;;;11.93;1.58;;;6.10;99.90;;;;;;5051610;28;20044;-44
2022/04/08 00:16:34;;;;;;;11.38;1.95;;;6.10;99.90;;;;;;5051477;28;20056;-44
2022/04/08 00:19:00;;;;;;;7.63;1.60;;;6.00;99.90;;;;;;5050715;28;20057;-45
2022/04/08 00:21:28;;;;;;;14.75;1.67;;;6.00;99.90;;;;;;5048388;28;20511;-44
2022/04/08 00:23:54;;;;;;;10.18;1.33;;;6.00;99.90;;;;;;5047074;28;20053;-43
2022/04/08 00:26:22;;;;;;;12.38;1.40;;;6.00;99.90;;;;;;5040336;28;20403;-45
2022/04/08 00:28:49;;;;;;;10.48;1.92;;;6.00;99.90;;;;;;5048724;28;20119;-44
2022/04/08 00:31:16;;;;;;;15.75;1.88;;;6.00;99.90;;;;;;5048488;28;20045;-44
2022/04/08 00:33:42;;;;;;;11.13;1.20;;;6.00;99.90;;;;;;5039306;28;20057;-44
2022/04/08 00:36:09;;;;;;;8.98;1.20;;;6.00;99.90;;;;;;5047958;28;20045;-44
2022/04/08 00:38:36;;;;;;;7.90;1.58;;;6.00;99.90;;;;;;5049533;28;20044;-44
2022/04/08 00:41:02;;;;;;;11.05;1.42;;;6.00;99.90;;;;;;5050187;28;20059;-44
2022/04/08 00:43:35;;;;;;;6.72;1.40;;;5.90;99.90;;;;;;5067084;28;20049;-44
2022/04/08 00:46:02;;;;;;;8.80;1.42;;;5.90;99.90;;;;;;5051938;28;20135;-45
2022/04/08 00:48:28;;;;;;;5.82;0.82;;;5.80;99.90;;;;;;5050815;28;20068;-45
2022/04/08 00:50:55;;;;;;;8.32;1.30;;;5.90;99.90;;;;;;5051912;28;20065;-41
2022/04/08 00:53:22;;;;;;;4.35;0.77;;;5.80;99.90;;;;;;5051469;28;20055;-44
2022/04/08 00:55:49;;;;;;;6.82;1.30;;;5.80;99.90;;;;;;5050688;28;20132;-45
2022/04/08 00:58:15;;;;;;;7.30;1.38;;;5.70;99.90;;;;;;5050262;28;20052;-44
2022/04/08 01:00:43;;;;;;;4.78;0.80;;;5.70;99.90;;;;;;5050886;28;20049;-45
2022/04/08 01:03:10;;;;;;;7.68;1.13;;;5.60;99.90;;;;;;5052470;28;20045;-44
2022/04/08 01:05:37;;;;;;;4.55;1.00;;;5.60;99.90;;;;;;5052476;28;20045;-44
2022/04/08 01:08:04;;;;;;;3.83;0.70;;;5.60;99.90;;;;;;5048279;28;20072;-44
2022/04/08 01:10:31;;;;;;;8.43;1.17;;;5.50;99.90;;;;;;5052368;28;20098;-45
2022/04/08 01:12:57;;;;;;;7.57;1.35;;;5.40;99.90;;;;;;5051128;28;20048;-45
2022/04/08 01:15:25;;;;;;;7.82;0.98;;;5.40;99.90;;;;;;5049433;28;20049;-44
2022/04/08 01:17:53;;;;;;;9.05;1.42;;;5.30;99.90;;;;;;5044304;28;20041;-45
2022/04/08 01:20:21;;;;;;;7.07;1.55;;;5.30;99.90;;;;;;5052009;28;20049;-45
2022/04/08 01:22:47;;;;;;;6.43;1.17;;;5.20;99.90;;;;;;5050851;28;20102;-45
2022/04/08 01:25:15;;;;;;;9.20;1.20;;;5.20;99.90;;;;;;5050559;28;20055;-46
2022/04/08 01:27:43;;;;;;;8.32;1.50;;;5.00;99.90;;;;;;5049419;28;20412;-44
2022/04/08 01:30:12;;;;;;;10.82;1.52;;;5.00;99.90;;;;;;5039925;28;20064;-43
2022/04/08 01:32:38;;;;;;;7.43;1.05;;;4.90;99.90;;;;;;5054456;28;20045;-43
2022/04/08 01:35:06;;;;;;;10.23;2.13;;;4.90;99.90;;;;;;5051971;28;20052;-43
2022/04/08 01:37:32;;;;;;;9.23;1.73;;;4.90;99.90;;;;;;5054578;28;20041;-42
2022/04/08 01:39:59;;;;;;;8.27;1.30;;;4.90;99.90;;;;;;5055669;28;20489;-42
2022/04/08 01:42:27;;;;;;;7.95;1.40;;;4.80;99.90;;;;;;5049746;28;20140;-42
2022/04/08 01:44:54;;;;;;;12.85;1.80;;;4.80;99.90;;;;;;5054613;28;20088;-40
2022/04/08 01:47:21;;;;;;;8.68;1.35;;;4.80;99.90;;;;;;5053362;28;20088;-41
2022/04/08 01:49:48;;;;;;;15.23;1.65;;;4.90;99.90;;;;;;5052678;28;20053;-42
2022/04/08 01:52:14;;;;;;;9.50;1.35;;;4.80;99.90;;;;;;5054284;28;20037;-42
2022/04/08 01:54:41;;;;;;;10.98;1.38;;;4.80;99.90;;;;;;5051017;28;20497;-43
2022/04/08 01:57:08;;;;;;;5.95;1.38;;;4.80;99.90;;;;;;5051249;28;20049;-44
2022/04/08 01:59:36;;;;;;;13.65;1.88;;;4.80;99.90;;;;;;5053166;28;20051;-43
2022/04/08 02:02:02;;;;;;;7.63;1.33;;;4.80;99.90;;;;;;5052270;28;20045;-43
2022/04/08 02:04:29;;;;;;;6.88;1.70;;;4.70;99.90;;;;;;5055416;28;20060;-45
2022/04/08 02:06:56;;;;;;;5.38;1.13;;;4.70;99.90;;;;;;5055464;28;20077;-44
2022/04/08 02:09:23;;;;;;;13.30;1.60;;;4.70;99.90;;;;;;5055279;28;20045;-44
2022/04/08 02:11:49;;;;;;;9.75;1.42;;;4.70;99.90;;;;;;5055430;28;20471;-45
2022/04/08 02:14:16;;;;;;;9.38;1.63;;;4.70;99.90;;;;;;5054229;28;20056;-44
2022/04/08 02:16:44;;;;;;;8.70;1.30;;;4.70;99.90;;;;;;5045682;28;20053;-44
2022/04/08 02:19:11;;;;;;;13.93;1.80;;;4.70;99.90;;;;;;5050795;28;20432;-44
2022/04/08 02:21:37;;;;;;;5.90;1.48;;;4.60;99.90;;;;;;5054223;28;20049;-45
2022/04/08 02:24:04;;;;;;;6.60;1.48;;;4.60;99.90;;;;;;5054339;28;20059;-44
2022/04/08 02:26:31;;;;;;;9.77;1.58;;;4.60;99.90;;;;;;5055034;28;20132;-44
2022/04/08 02:28:59;;;;;;;10.00;1.60;;;4.60;99.90;;;;;;5053916;28;20052;-42
2022/04/08 02:31:25;;;;;;;10.80;1.52;;;4.50;99.90;;;;;;5046640;28;20055;-44
2022/04/08 02:33:53;;;;;;;8.18;1.30;;;4.50;99.90;;;;;;5054060;28;20474;-42
2022/04/08 02:36:20;;;;;;;12.38;1.63;;;4.50;99.90;;;;;;5054154;28;20059;-44
2022/04/08 02:38:47;;;;;;;7.50;1.70;;;4.50;99.90;;;;;;5053362;28;20053;-43
2022/04/08 02:41:13;;;;;;;13.07;1.70;;;4.50;99.90;;;;;;5053498;28;20041;-44
2022/04/08 02:43:40;;;;;;;9.27;1.70;;;4.50;99.90;;;;;;5053368;28;20511;-44
2022/04/08 02:46:07;;;;;;;18.98;3.15;;;4.50;99.90;;;;;;5054522;28;20511;-44
2022/04/08 02:48:34;;;;;;;12.07;1.63;;;4.50;99.90;;;;;;5054259;28;20128;-43
2022/04/08 02:51:02;;;;;;;17.70;2.10;;;4.50;99.90;;;;;;5054834;28;20049;-43
2022/04/08 02:53:28;;;;;;;14.82;1.67;;;4.50;99.90;;;;;;5053087;28;20478;-43
2022/04/08 02:55:55;;;;;;;10.07;1.83;;;4.40;99.90;;;;;;5052834;28;20156;-45
2022/04/08 02:58:22;;;;;;;12.27;1.77;;;4.40;99.90;;;;;;5052603;28;20473;-43
2022/04/08 03:00:48;;;;;;;14.27;2.40;;;4.40;99.90;;;;;;5051789;28;20045;-43
2022/04/08 03:03:15;;;;;;;10.95;1.65;;;4.40;99.90;;;;;;5052320;28;20085;-43
2022/04/08 03:05:42;;;;;;;15.55;2.00;;;4.40;99.90;;;;;;5048285;28;20055;-43
2022/04/08 03:08:10;;;;;;;15.13;2.92;;;4.40;99.90;;;;;;5048851;28;20481;-43
2022/04/08 03:10:37;;;;;;;11.23;1.70;;;4.40;99.90;;;;;;5052702;28;20041;-44
2022/04/08 03:13:04;;;;;;;10.63;1.58;;;4.40;99.90;;;;;;5053217;28;20083;-43
2022/04/08 03:15:31;;;;;;;9.95;2.15;;;4.40;99.90;;;;;;5053077;28;20202;-43
2022/04/08 03:17:58;;;;;;;13.93;1.90;;;4.40;99.90;;;;;;5039514;28;20054;-44
2022/04/08 03:20:24;;;;;;;13.27;2.25;;;4.40;99.90;;;;;;5052542;28;20049;-44
2022/04/08 03:22:51;;;;;;;12.98;1.83;;;4.40;99.90;;;;;;5037169;28;20115;-42
2022/04/08 03:25:20;;;;;;;12.18;1.98;;;4.40;99.90;;;;;;5043592;28;20045;-43
2022/04/08 03:27:46;;;;;;;14.85;2.53;;;4.40;99.90;;;;;;5041187;28;20049;-44
2022/04/08 03:30:13;;;;;;;13.68;2.40;;;4.30;99.90;;;;;;5052847;28;20063;-43
2022/04/08 03:32:40;;;;;;;16.83;2.40;;;4.40;99.90;;;;;;5053880;28;20045;-43
2022/04/08 03:35:08;;;;;;;18.02;2.10;;;4.40;99.90;;;;;;5045599;28;20057;-44
2022/04/08 03:37:34;;;;;;;16.77;2.30;;;4.40;99.90;;;;;;5045637;28;20053;-44
2022/04/08 03:40:01;;;;;;;11.57;2.15;;;4.40;99.90;;;;;;5049511;28;20689;-45
2022/04/08 03:42:29;;;;;;;12.60;1.98;;;4.40;99.90;;;;;;5032374;28;20072;-42
2022/04/08 03:44:56;;;;;;;14.32;1.65;;;4.40;99.90;;;;;;5044221;28;20486;-43
2022/04/08 03:47:23;;;;;;;10.73;1.55;;;4.40;99.90;;;;;;5052794;28;20045;-42
2022/04/08 03:49:49;;;;;;;9.75;1.88;;;4.50;99.90;;;;;;5053044;28;20140;-40
2022/04/08 03:52:16;;;;;;;11.20;1.60;;;4.50;99.90;;;;;;5052522;28;20494;-42
2022/04/08 03:54:43;;;;;;;10.05;1.75;;;4.50;99.90;;;;;;5049923;28;20079;-44
2022/04/08 03:57:10;;;;;;;9.63;1.52;;;4.50;99.90;;;;;;5049559;28;20059;-44
2022/04/08 03:59:38;;;;;;;10.70;2.08;;;4.50;99.90;;;;;;5050820;28;20094;-43
2022/04/08 04:02:07;;;;;;;14.85;1.63;;;4.50;99.90;;;;;;5046992;28;20515;-43
2022/04/08 04:04:34;;;;;;;13.07;2.47;;;4.50;99.90;;;;;;5054525;28;20442;-44
2022/04/08 04:07:00;;;;;;;12.38;1.98;;;4.50;99.90;;;;;;5047889;28;20134;-42
2022/04/08 04:09:27;;;;;;;9.15;2.00;;;4.50;99.90;;;;;;5047120;28;20046;-42
2022/04/08 04:11:54;;;;;;;16.10;2.13;;;4.50;99.90;;;;;;5050283;28;20514;-44
2022/04/08 04:14:20;;;;;;;9.35;1.73;;;4.40;99.90;;;;;;5050538;28;20049;-42
2022/04/08 04:16:48;;;;;;;15.60;1.67;;;4.40;99.90;;;;;;5053372;28;20095;-41
2022/04/08 04:19:15;;;;;;;10.27;1.42;;;4.40;99.90;;;;;;5052024;28;20120;-41
2022/04/08 04:21:42;;;;;;;6.80;1.30;;;4.40;99.90;;;;;;5051485;28;20041;-42
2022/04/08 04:24:09;;;;;;;11.50;1.50;;;4.40;99.90;;;;;;5049281;28;20056;-42
2022/04/08 04:26:35;;;;;;;8.25;1.65;;;4.30;99.90;;;;;;5052741;28;20053;-42
2022/04/08 04:29:02;;;;;;;6.55;1.60;;;4.30;99.90;;;;;;5033313;28;20055;-44
2022/04/08 04:31:29;;;;;;;7.53;1.08;;;4.30;99.90;;;;;;5034989;28;20055;-42
2022/04/08 04:33:57;;;;;;;6.97;1.52;;;4.30;99.90;;;;;;5050292;28;20060;-42
2022/04/08 04:36:23;;;;;;;6.22;1.40;;;4.20;99.90;;;;;;5048559;28;20132;-43
2022/04/08 04:38:50;;;;;;;8.75;1.38;;;4.20;99.90;;;;;;5047738;28;20405;-44
2022/04/08 04:41:17;;;;;;;11.55;1.75;;;4.20;99.90;;;;;;5050298;28;20051;-43
2022/04/08 04:43:44;;;;;;;7.05;1.05;;;4.10;99.90;;;;;;5032361;28;20493;-43
2022/04/08 04:46:11;;;;;;;9.43;1.30;;;4.10;99.90;;;;;;5052934;28;20049;-44
2022/04/08 04:48:37;;;;;;;6.28;1.25;;;4.10;99.90;;;;;;5052898;28;20041;-44
2022/04/08 04:51:05;;;;;;;6.65;1.30;;;4.00;99.90;;;;;;5048520;28;20049;-44
2022/04/08 04:53:32;;;;;;;10.10;1.30;;;4.00;99.90;;;;;;5049570;28;20091;-43
2022/04/08 04:55:59;;;;;;;4.60;1.35;;;4.00;99.90;;;;;;5044024;28;20049;-43
2022/04/08 04:58:26;;;;;;;6.07;1.10;;;4.00;99.90;;;;;;5050406;28;20099;-44
2022/04/08 05:00:52;;;;;;;6.28;1.60;;;4.00;99.90;;;;;;5048072;28;20057;-43
2022/04/08 05:03:19;;;;;;;6.38;1.30;;;4.00;99.90;;;;;;5031622;28;20063;-43
2022/04/08 05:05:47;;;;;;;7.03;1.10;;;4.00;99.90;;;;;;5051666;28;20053;-44
2022/04/08 05:08:15;;;;;;;9.50;1.75;;;4.00;99.90;;;;;;5039462;28;20053;-44
2022/04/08 05:10:42;;;;;;;6.68;1.10;;;4.00;99.90;;;;;;5042059;28;20069;-43
2022/04/08 05:13:09;;;;;;;9.95;1.30;;;4.00;99.90;;;;;;5052251;28;20048;-43
2022/04/08 05:15:38;;;;;;;5.88;1.40;;;4.00;99.90;;;;;;5038283;28;20466;-43
2022/04/08 05:18:05;;;;;;;8.55;1.33;;;4.00;99.90;;;;;;5049585;28;20436;-44
2022/04/08 05:20:32;;;;;;;9.20;1.45;;;4.10;99.90;;;;;;5051718;28;20041;-43
2022/04/08 05:22:58;;;;;;;8.70;1.60;;;4.10;99.90;;;;;;5050661;28;20055;-43
2022/04/08 05:25:27;;;;;;;12.65;1.40;;;4.10;99.90;;;;;;5051496;28;20145;-43
2022/04/08 05:27:54;;;;;;;7.10;1.40;;;4.20;99.90;;;;;;5051221;28;20515;-43
2022/04/08 05:30:21;;;;;;;12.93;1.65;;;4.20;99.90;;;;;;5049619;28;20064;-43
2022/04/08 05:32:47;;;;;;;8.38;1.20;;;4.20;99.90;;;;;;5048969;28;20073;-44
2022/04/08 05:35:15;;;;;;;8.13;1.80;;;4.20;99.90;;;;;;5050679;28;20052;-42
2022/04/08 05:37:42;;;;;;;5.20;1.45;;;4.20;99.90;;;;;;5052112;28;20084;-44
2022/04/08 05:40:10;;;;;;;8.07;1.50;;;4.20;99.90;;;;;;5051888;28;20094;-43
2022/04/08 05:42:40;;;;;;;6.05;1.40;;;4.20;99.90;;;;;;5052178;28;20507;-42
2022/04/08 05:45:08;;;;;;;5.18;1.48;;;4.10;99.90;;;;;;5050884;28;20048;-43
2022/04/08 05:47:35;;;;;;;5.68;1.27;;;4.10;99.90;;;;;;5051047;28;20465;-44
2022/04/08 05:50:05;;;;;;;3.55;1.23;;;4.10;99.90;;;;;;5050832;28;20038;-43
2022/04/08 05:52:35;;;;;;;4.40;0.98;;;4.10;99.90;;;;;;5051932;28;20053;-43
2022/04/08 05:55:02;;;;;;;4.30;1.00;;;4.20;99.90;;;;;;5050667;28;20144;-43
2022/04/08 05:57:33;;;;;;;8.68;1.60;;;4.20;99.90;;;;;;5043080;28;20068;-44
2022/04/08 06:00:01;;;;;;;6.10;1.40;;;4.20;99.90;;;;;;5045960;28;20136;-44
2022/04/08 06:02:28;;;;;;;8.25;1.38;;;4.20;99.90;;;;;;5045687;28;20084;-43
2022/04/08 06:04:55;;;;;;;3.30;1.15;;;4.20;99.90;;;;;;5048064;28;20088;-44
2022/04/08 06:07:23;;;;;;;3.42;1.30;;;4.30;99.90;;;;;;5049656;28;20056;-43
2022/04/08 06:09:50;;;;;;;4.43;1.20;;;4.30;99.90;;;;;;5050302;28;20465;-43
2022/04/08 06:12:17;;;;;;;9.48;2.88;;;4.30;99.90;;;;;;5050505;28;20071;-41
2022/04/08 06:14:43;;;;;;;7.65;2.78;;;4.30;99.90;;;;;;5049942;28;20055;-43
2022/04/08 06:17:11;;;;;;;7.57;3.78;;;4.30;99.90;;;;;;5049320;28;20053;-43
2022/04/08 06:19:38;;;;;;;7.45;3.03;;;4.30;99.90;;;;;;5052550;28;20049;-45
2022/04/08 06:22:05;;;;;;;5.78;2.13;;;4.30;99.90;;;;;;5054000;28;20484;-43
2022/04/08 06:24:32;;;;;;;4.55;2.03;;;4.30;99.90;;;;;;5053982;28;20565;-42
2022/04/08 06:26:58;;;;;;;6.30;1.55;;;4.30;99.90;;;;;;5051824;28;20049;-44
2022/04/08 06:29:25;;;;;;;5.00;1.67;;;4.30;99.90;;;;;;5052735;28;20063;-43
2022/04/08 06:31:52;;;;;;;7.05;1.40;;;4.30;99.90;;;;;;5054565;28;20057;-43
2022/04/08 06:34:20;;;;;;;3.03;1.17;;;4.30;99.90;;;;;;5048060;28;20049;-43
2022/04/08 06:36:47;;;;;;;3.97;1.17;;;4.30;99.90;;;;;;5038097;28;20141;-43
2022/04/08 06:39:13;;;;;;;5.65;1.50;;;4.40;99.90;;;;;;5041988;28;20507;-44
2022/04/08 06:41:40;;;;;;;6.50;1.80;;;4.50;99.90;;;;;;5052088;28;20056;-43
2022/04/08 06:44:07;;;;;;;5.93;1.42;;;4.50;99.90;;;;;;5050510;28;20080;-45
2022/04/08 06:46:34;;;;;;;5.10;1.58;;;4.60;99.90;;;;;;5050059;28;20131;-44
2022/04/08 06:49:02;;;;;;;4.32;1.35;;;4.80;99.90;;;;;;5053270;28;20057;-44
2022/04/08 06:51:31;;;;;;;5.07;1.08;;;4.90;99.90;;;;;;5044899;28;20402;-43
2022/04/08 06:53:58;;;;;;;5.10;1.55;;;5.00;99.90;;;;;;5053359;28;20481;-44
2022/04/08 06:56:24;;;;;;;5.82;1.30;;;5.00;99.90;;;;;;5068895;28;20048;-44
2022/04/08 06:58:51;;;;;;;6.28;1.50;;;5.00;99.90;;;;;;5054164;28;20053;-44
2022/04/08 07:01:18;;;;;;;6.38;1.55;;;5.00;99.90;;;;;;5043498;28;20053;-43
2022/04/08 07:03:44;;;;;;;4.20;1.30;;;5.00;99.90;;;;;;5033179;28;20046;-43
2022/04/08 07:06:11;;;;;;;5.65;1.27;;;5.00;99.90;;;;;;5034399;28;20140;-43
2022/04/08 07:08:39;;;;;;;5.38;1.20;;;5.00;99.90;;;;;;5034667;28;20053;-44
2022/04/08 07:11:06;;;;;;;4.00;1.08;;;5.10;99.90;;;;;;5034950;28;20520;-43
2022/04/08 07:13:33;;;;;;;7.53;1.50;;;5.20;99.90;;;;;;5052453;28;20422;-43
2022/04/08 07:16:00;;;;;;;3.63;1.05;;;5.30;99.90;;;;;;5054073;28;20084;-44
2022/04/08 07:18:27;;;;;;;9.38;1.80;;;5.50;99.90;;;;;;5052709;28;20178;-44
2022/04/08 07:20:54;;;;;;;4.07;1.35;;;5.60;99.90;;;;;;5052455;28;20053;-43
2022/04/08 07:23:21;;;;;;;7.20;1.67;;;5.70;99.90;;;;;;5053400;28;20408;-45
2022/04/08 07:25:49;;;;;;;7.13;1.67;;;5.90;99.90;;;;;;5052645;28;20084;-44
2022/04/08 07:28:15;;;;;;;11.15;1.70;;;6.10;99.90;;;;;;5049871;28;20405;-45
2022/04/08 07:30:42;;;;;;;5.82;1.65;;;6.30;99.90;;;;;;5052572;28;20132;-44
2022/04/08 07:33:09;;;;;;;5.55;1.65;;;6.40;99.90;;;;;;5053611;28;20055;-44
2022/04/08 07:35:37;;;;;;;5.82;1.40;;;6.50;99.90;;;;;;5045096;28;20051;-44
2022/04/08 07:38:05;;;;;;;8.20;2.00;;;6.70;99.90;;;;;;5033531;28;20468;-45
2022/04/08 07:40:32;;;;;;;10.75;1.42;;;6.80;99.90;;;;;;5038222;28;20055;-44
2022/04/08 07:43:00;;;;;;;7.70;2.13;;;6.90;99.90;;;;;;5053182;28;20052;-44
2022/04/08 07:45:29;;;;;;;10.77;1.90;;;7.00;99.90;;;;;;5053371;28;20110;-43
2022/04/08 07:47:58;;;;;;;13.07;1.95;;;6.90;99.90;;;;;;5054533;28;20064;-43
2022/04/08 07:50:25;;;;;;;7.95;1.67;;;6.80;99.90;;;;;;5058072;28;20519;-44
2022/04/08 07:52:52;;;;;;;10.52;2.55;;;6.60;99.90;;;;;;5052155;28;20107;-44
2022/04/08 07:55:20;;;;;;;13.90;2.55;;;6.50;99.90;;;;;;5053116;28;20111;-45
2022/04/08 07:57:47;;;;;;;11.35;1.92;;;6.40;99.90;;;;;;5051468;28;20053;-45
2022/04/08 08:00:16;;;;;;;10.45;2.08;;;6.30;99.90;;;;;;5053182;28;20053;-45
2022/04/08 08:02:43;;;;;;;9.43;1.85;;;6.20;99.90;;;;;;5052950;28;20049;-43
2022/04/08 08:05:10;;;;;;;8.50;2.22;;;6.30;99.90;;;;;;5053262;28;20053;-44
2022/04/08 08:07:44;;;;;;;7.32;1.73;;;6.30;99.90;;;;;;5047899;28;20200;-45
2022/04/08 08:10:14;;;;;;;10.30;1.90;;;6.50;99.90;;;;;;5032102;28;20057;-45
2022/04/08 08:12:40;;;;;;;11.38;2.22;;;6.60;99.90;;;;;;5032578;28;20088;-44
2022/04/08 08:15:08;;;;;;;13.65;2.15;;;6.80;99.90;;;;;;5032920;28;20049;-44
2022/04/08 08:17:36;;;;;;;9.57;2.00;;;6.90;99.90;;;;;;5037698;28;20470;-45
2022/04/08 08:20:04;;;;;;;11.07;2.08;;;7.00;99.90;;;;;;5051466;28;20537;-44
2022/04/08 08:22:30;;;;;;;8.40;1.67;;;7.20;99.90;;;;;;5052134;28;20131;-44
2022/04/08 08:24:57;;;;;;;7.60;1.75;;;7.30;99.90;;;;;;5052661;28;20140;-44
2022/04/08 08:27:24;;;;;;;8.45;1.67;;;7.50;99.90;;;;;;5038087;28;20155;-43
2022/04/08 08:29:50;;;;;;;4.63;1.30;;;7.50;99.90;;;;;;5049923;28;20059;-45
2022/04/08 08:32:17;;;;;;;5.50;1.63;;;7.60;99.90;;;;;;5047214;28;20056;-43
2022/04/08 08:34:45;;;;;;;7.20;1.40;;;7.70;99.90;;;;;;5051392;28;20049;-44
2022/04/08 08:37:12;;;;;;;7.20;1.80;;;7.80;99.90;;;;;;5052619;28;20067;-44
2022/04/08 08:39:39;;;;;;;7.47;1.60;;;7.90;99.90;;;;;;5045511;28;20045;-44
2022/04/08 08:42:06;;;;;;;6.82;1.85;;;8.00;99.90;;;;;;5032527;28;20136;-43
2022/04/08 08:44:33;;;;;;;6.90;1.90;;;8.20;99.90;;;;;;5052369;28;20382;-42
2022/04/08 08:47:00;;;;;;;4.97;1.40;;;8.30;99.90;;;;;;5051620;28;20235;-45
2022/04/08 08:49:26;;;;;;;6.50;1.48;;;8.40;99.90;;;;;;5052459;28;20044;-44
2022/04/08 08:51:56;;;;;;;8.77;1.90;;;8.50;99.90;;;;;;5051219;28;20048;-43
2022/04/08 08:54:23;;;;;;;8.32;1.60;;;8.60;99.90;;;;;;5052125;28;20063;-43
2022/04/08 08:56:50;;;;;;;6.97;1.73;;;8.70;99.90;;;;;;5042338;28;20133;-43
2022/04/08 08:59:16;;;;;;;9.95;1.88;;;8.80;99.90;;;;;;5031215;28;20050;-43
2022/04/08 09:01:43;;;;;;;8.48;1.88;;;8.90;99.90;;;;;;5043592;28;20493;-43
2022/04/08 09:04:10;;;;;;;7.20;1.85;;;8.90;99.90;;;;;;5051153;28;20412;-43
2022/04/08 09:06:40;;;;;;;10.63;1.83;;;8.90;99.90;;;;;;5051074;28;20053;-44
2022/04/08 09:09:11;;;;;;;10.45;1.90;;;8.80;99.90;;;;;;5050028;28;20118;-44
2022/04/08 09:11:37;;;;;;;11.32;2.08;;;8.70;99.90;;;;;;5052070;28;20064;-43
2022/04/08 09:14:05;;;;;;;12.75;2.30;;;8.70;99.90;;;;;;5051954;28;20135;-44
2022/04/08 09:16:37;;;;;;;11.95;2.42;;;8.90;99.90;;;;;;5049390;28;20049;-44
2022/04/08 09:19:10;;;;;;;14.00;2.47;;;9.10;99.90;;;;;;5051936;28;20052;-43
2022/04/08 09:21:37;;;;;;;14.95;2.53;;;9.30;99.90;;;;;;5047448;28;20049;-44
2022/04/08 09:24:06;;;;;;;12.20;2.53;;;9.40;99.90;;;;;;5051430;28;20045;-44
2022/04/08 09:26:36;;;;;;;13.45;3.67;;;9.50;99.90;;;;;;5051410;28;20052;-43
2022/04/08 09:29:04;;;;;;;16.15;2.83;;;9.50;99.90;;;;;;5047124;28;20132;-44
2022/04/08 09:31:32;;;;;;;16.67;3.28;;;9.50;99.90;;;;;;5044370;28;20136;-44
2022/04/08 09:33:58;;;;;;;21.38;3.13;;;9.40;99.90;;;;;;5051560;28;20053;-44
2022/04/08 09:36:30;;;;;;;17.58;3.08;;;9.40;99.90;;;;;;5051495;28;20495;-45
2022/04/08 09:38:56;;;;;;;16.15;2.78;;;9.30;99.90;;;;;;5048952;28;20045;-45
2022/04/08 09:41:38;;;;;;;16.52;2.95;;;9.10;99.90;;;;;;5049471;28;20550;-44
2022/04/08 09:44:06;;;;;;;13.23;3.15;;;9.10;99.90;;;;;;5066581;28;20059;-44
2022/04/08 09:46:32;;;;;;;15.45;3.30;;;9.00;99.90;;;;;;5049843;28;20460;-44
2022/04/08 09:48:59;;;;;;;13.60;3.60;;;9.00;99.90;;;;;;5051652;28;20136;-44
2022/04/08 09:51:26;;;;;;;21.08;3.25;;;8.90;99.90;;;;;;5051399;28;20041;-44
2022/04/08 09:53:55;;;;;;;19.85;3.15;;;8.90;99.90;;;;;;5053864;28;20049;-45
2022/04/08 09:56:22;;;;;;;16.20;3.10;;;8.70;99.90;;;;;;5055631;28;20064;-45
2022/04/08 09:58:54;;;;;;;19.52;3.05;;;8.70;99.90;;;;;;5054774;28;20048;-44
2022/04/08 10:01:23;;;;;;;;;;;8.60;99.90;;;;;;5052708;28;20055;-44
2022/04/08 10:03:49;;;;;;;18.15;3.05;;;8.50;99.90;;;;;;5035602;28;19920;-46
2022/04/08 10:06:16;;;;;;;14.57;2.92;;;8.50;99.90;;;;;;5048606;28;20049;-44
2022/04/08 10:08:43;;;;;;;16.30;2.90;;;8.50;99.90;;;;;;5034347;28;20059;-46
2022/04/08 10:11:13;;;;;;;18.13;3.00;;;8.70;99.90;;;;;;5042439;28;20400;-45
2022/04/08 10:13:49;;;;;;;15.45;3.30;;;8.90;99.90;;;;;;5052253;28;20119;-44
2022/04/08 10:16:18;;;;;;;16.05;2.95;;;8.90;99.90;;;;;;5049176;28;20045;-44
2022/04/08 10:18:45;;;;;;;16.23;3.03;;;8.90;99.90;;;;;;5055212;28;20057;-45
2022/04/08 10:21:13;;;;;;;14.07;3.38;;;8.80;99.90;;;;;;5052335;28;20132;-44
2022/04/08 10:23:40;;;;;;;16.20;2.90;;;8.80;99.90;;;;;;5053948;28;20461;-46
2022/04/08 10:26:16;;;;;;;11.02;2.60;;;8.70;99.90;;;;;;5052662;28;20164;-43
2022/04/08 10:28:43;;;;;;;17.27;3.70;;;8.60;99.90;;;;;;5055407;28;20067;-44
2022/04/08 10:31:22;;;;;;;16.23;3.30;;;8.50;99.90;;;;;;5051478;28;20037;-43
2022/04/08 10:33:50;;;;;;;9.95;2.10;;;8.40;99.90;;;;;;5051462;28;20052;-44
2022/04/08 10:36:17;;;;;;;8.32;2.00;;;8.10;99.90;;;;;;5053858;28;20055;-43
2022/04/08 10:38:44;;;;;;;12.68;2.40;;;7.90;99.90;;;;;;5054433;28;20531;-44
2022/04/08 10:41:11;;;;;;;8.18;2.42;;;7.70;99.90;;;;;;5054630;28;20409;-44
2022/04/08 10:43:45;;;;;;;9.30;2.10;;;7.60;99.90;;;;;;5045295;28;20084;-43
2022/04/08 10:46:12;;;;;;;8.27;1.65;;;7.50;99.90;;;;;;5053946;28;20485;-45
2022/04/08 10:48:40;;;;;;;13.35;2.20;;;7.40;99.90;;;;;;5048735;28;20051;-43
2022/04/08 10:51:10;;;;;;;10.35;1.98;;;7.40;99.90;;;;;;5055156;28;20127;-43
2022/04/08 10:53:40;;;;;;;6.32;1.65;;;7.30;99.90;;;;;;5054245;28;20155;-44
2022/04/08 10:56:09;;;;;;;8.23;1.98;;;7.30;99.90;;;;;;5067017;28;20058;-43
2022/04/08 10:58:39;;;;;;;11.98;2.33;;;7.40;99.90;;;;;;5046873;28;20064;-41
2022/04/08 11:01:16;;;;;;;7.45;2.17;;;7.50;99.90;;;;;;5054660;28;20392;-42
2022/04/08 11:03:46;;;;;;;7.22;2.00;;;7.60;99.90;;;;;;5053992;28;20052;-43
2022/04/08 11:06:14;;;;;;;7.47;2.15;;;7.70;99.90;;;;;;5053671;28;20083;-43
2022/04/08 11:08:41;;;;;;;8.05;1.90;;;7.90;99.90;;;;;;5054423;28;20485;-43
2022/04/08 11:11:08;;;;;;;6.88;1.95;;;8.00;99.90;;;;;;5053805;28;20118;-44
2022/04/08 11:13:34;;;;;;;17.08;2.90;;;8.10;99.90;;;;;;5054120;28;20279;-43
2022/04/08 11:16:01;;;;;;;14.18;2.28;;;8.30;99.90;;;;;;5054074;28;20048;-44
2022/04/08 11:18:28;;;;;;;6.75;1.92;;;8.40;99.90;;;;;;5053311;28;20049;-43
2022/04/08 11:20:56;;;;;;;10.63;2.08;;;8.50;99.90;;;;;;5054126;28;20194;-43
2022/04/08 11:23:26;;;;;;;8.23;2.15;;;8.60;99.90;;;;;;5051852;28;20055;-43
2022/04/08 11:25:53;;;;;;;8.93;2.03;;;8.60;99.90;;;;;;5054199;28;20405;-44
2022/04/08 11:28:21;;;;;;;9.73;2.22;;;8.70;99.90;;;;;;5052864;28;20056;-44
2022/04/08 11:30:48;;;;;;;9.23;2.08;;;8.90;99.90;;;;;;5051993;28;20057;-44
2022/04/08 11:33:15;;;;;;;7.22;2.30;;;9.00;99.90;;;;;;5052782;28;20065;-43
2022/04/08 11:35:43;;;;;;;8.00;1.38;;;9.20;99.90;;;;;;5054127;28;20049;-44
2022/04/08 11:38:15;;;;;;;9.25;2.05;;;9.30;99.90;;;;;;5050202;28;20049;-45
2022/04/08 11:40:41;;;;;;;5.43;1.75;;;9.40;99.90;;;;;;5052258;28;20079;-44
2022/04/08 11:43:08;;;;;;;8.30;1.88;;;9.50;99.90;;;;;;5051331;28;20131;-44
2022/04/08 11:45:35;;;;;;;12.38;2.25;;;9.60;99.90;;;;;;5051238;28;20132;-44
2022/04/08 11:48:02;;;;;;;5.88;1.50;;;9.70;99.90;;;;;;5049024;28;20041;-45
2022/04/08 11:50:28;;;;;;;5.00;1.45;;;9.80;99.90;;;;;;5043283;28;20413;-44
2022/04/08 11:52:56;;;;;;;11.90;2.08;;;9.90;99.90;;;;;;5042124;28;20053;-43
2022/04/08 11:55:25;;;;;;;9.88;1.67;;;10.00;99.90;;;;;;5034143;28;20057;-44
2022/04/08 11:57:52;;;;;;;10.25;1.85;;;10.10;99.90;;;;;;5041062;28;20136;-47
2022/04/08 12:00:24;;;;;;;13.95;2.40;;;10.20;99.90;;;;;;5032370;28;20624;-46
2022/04/08 12:02:50;;;;;;;;;;;10.30;99.90;;;;;;5040720;28;20052;-45
2022/04/08 12:05:19;;;;;;;10.00;2.30;;;10.20;99.90;;;;;;5048792;28;19967;-44
2022/04/08 12:07:46;;;;;;;13.52;2.30;;;10.20;99.90;;;;;;5052785;28;20327;-44
2022/04/08 12:10:14;;;;;;;12.55;2.63;;;10.10;99.90;;;;;;5045155;28;20043;-43
2022/04/08 12:12:44;;;;;;;11.18;2.20;;;10.10;99.90;;;;;;5043144;28;20515;-45
2022/04/08 12:15:11;;;;;;;11.13;2.37;;;10.10;99.90;;;;;;5045250;28;20063;-43
2022/04/08 12:17:38;;;;;;;13.98;3.15;;;10.10;99.90;;;;;;5050702;28;20139;-45
2022/04/08 12:20:06;;;;;;;10.05;2.55;;;10.40;99.90;;;;;;5051955;28;20063;-44
2022/04/08 12:22:33;;;;;;;6.60;1.83;;;10.70;99.90;;;;;;5050821;28;20060;-44
2022/04/08 12:25:00;;;;;;;7.40;1.90;;;10.90;99.90;;;;;;5046450;28;20053;-44
2022/04/08 12:27:27;;;;;;;7.18;2.35;;;11.00;99.90;;;;;;5053271;28;20416;-45
2022/04/08 12:30:03;;;;;;;10.15;2.03;;;11.20;99.90;;;;;;5051656;28;20132;-44
2022/04/08 12:32:36;;;;;;;5.43;1.77;;;11.20;99.90;;;;;;5051432;28;20544;-44
2022/04/08 12:35:06;;;;;;;7.03;1.60;;;11.20;99.90;;;;;;5045500;28;20057;-45
2022/04/08 12:37:32;;;;;;;8.70;1.50;;;11.20;99.90;;;;;;5045960;28;20110;-44
2022/04/08 12:39:59;;;;;;;5.88;1.80;;;11.20;99.90;;;;;;5044268;28;20416;-44
2022/04/08 12:42:26;;;;;;;5.00;1.80;;;11.30;99.80;;;;;;5046493;28;20059;-44
2022/04/08 12:44:52;;;;;;;5.32;1.33;;;11.30;99.50;;;;;;5039953;28;20052;-46
2022/04/08 12:47:20;;;;;;;7.13;1.60;;;11.20;98.80;;;;;;5034302;28;20057;-45
2022/04/08 12:49:47;;;;;;;6.53;1.63;;;11.30;98.90;;;;;;5038805;28;20140;-45
2022/04/08 12:52:13;;;;;;;7.70;1.73;;;11.30;99.20;;;;;;5043881;28;20057;-45
2022/04/08 12:54:40;;;;;;;5.20;1.50;;;11.30;97.90;;;;;;5045895;28;20049;-44